Carvoeiro, Brazil
Current Conditions -  °F | °C
As of 1:00 PM on Sunday 23 Nov 2014 (Local Time) from SBJU Reporting Station
Scattered Clouds Scattered Clouds  
Wind Chill: 91°   Ceiling: Unl
Heat Index: 94°   Visibility: 6mi
Dew Point: 66°   Wind: 7mph
Humidity: 43%   Direction: 70°ENE
Pressure: 29.97"   Gusts: NA
Location:  6.12°S, 37.73°W
Report Text: SBJU 231600Z 07006KT 9999 SCT020 33/19 Q1015
Loading
Personal Weather Stations






























Interactive Weather Map New forecast layout! Learn more

10-Day Weather Forecast

Advertisements
Track Severe Weather on mobile